aviador You're here:

KQKG Decoded Metar

in
Report Time2017-04-25 05:55:00
UTC Time2017-04-25 06:34:06
Flight Rules vfr VFR
WindCalm
Visibility9999 m
Phenomena:N/A
Clouds:N/A
Expected CloudBase > 800 ft AGL from Temp-Dew spread
CeilingNone
Temp17°C
Dew Point15°C (88% RH)
QNH1031 hPa
Raw Report
METAR KQKG 250555Z AUTO 00000KT 9999 CLR 17/15 A3045 RMK AO2 SLP269
WND DATA ESTMD T01680147 10181 20157 53020=

Extra information for KQKG:More info

Social comments